createdAt,value
2022-10-05T00:01:33.792Z,5.29
2022-10-05T00:04:15.425Z,5.23
2022-10-05T00:06:45.307Z,5.17
2022-10-05T00:09:20.774Z,5.07
2022-10-05T00:11:51.811Z,5.04
2022-10-05T00:14:24.942Z,5.02
2022-10-05T00:16:54.664Z,5.05
2022-10-05T00:19:26.635Z,5.08
2022-10-05T00:21:57.928Z,5.19
2022-10-05T00:24:26.548Z,5.21
2022-10-05T00:26:58.023Z,5.22
2022-10-05T00:29:26.745Z,5.26
2022-10-05T00:31:56.504Z,5.35
2022-10-05T00:34:27.404Z,5.43
2022-10-05T00:36:56.089Z,5.55
2022-10-05T00:39:24.829Z,5.67
2022-10-05T00:42:19.436Z,5.71
2022-10-05T00:44:57.715Z,5.60
2022-10-05T00:47:46.307Z,5.50
2022-10-05T00:50:39.027Z,5.39
2022-10-05T00:53:29.406Z,5.28
2022-10-05T00:56:03.977Z,5.21
2022-10-05T00:58:53.209Z,5.19
2022-10-05T01:01:33.858Z,5.18
2022-10-05T01:04:17.615Z,5.17
2022-10-05T01:07:05.573Z,5.10
2022-10-05T01:09:48.434Z,5.08
2022-10-05T01:12:26.489Z,5.21
2022-10-05T01:15:03.417Z,5.27
2022-10-05T01:17:42.132Z,5.31
2022-10-05T01:20:29.132Z,5.31
2022-10-05T01:23:29.804Z,5.29
2022-10-05T01:26:27.481Z,5.30
2022-10-05T01:29:05.182Z,5.25
2022-10-05T01:31:42.723Z,5.14
2022-10-05T01:34:23.704Z,5.09
2022-10-05T01:37:05.341Z,5.01
2022-10-05T01:39:50.358Z,5.03
2022-10-05T01:42:32.299Z,5.07
2022-10-05T01:45:14.157Z,5.10
2022-10-05T01:47:47.502Z,5.06
2022-10-05T01:50:30.341Z,5.04
2022-10-05T01:53:12.866Z,4.98
2022-10-05T01:55:55.548Z,4.93
2022-10-05T01:58:39.539Z,4.86
2022-10-05T02:01:18.119Z,4.86
2022-10-05T02:03:55.247Z,4.87
2022-10-05T02:06:29.402Z,4.89
2022-10-05T02:09:07.423Z,4.75
2022-10-05T02:11:38.326Z,4.68
2022-10-05T02:14:12.737Z,4.66
2022-10-05T02:16:47.964Z,4.65
2022-10-05T02:19:22.746Z,4.72
2022-10-05T02:21:56.729Z,4.75
2022-10-05T02:24:35.016Z,4.81
2022-10-05T02:27:07.336Z,4.86
2022-10-05T02:29:43.778Z,4.85
2022-10-05T02:32:22.247Z,4.78
2022-10-05T02:34:51.025Z,4.84
2022-10-05T02:37:40.885Z,4.82
2022-10-05T02:40:24.502Z,4.80
2022-10-05T02:43:06.248Z,4.85
2022-10-05T02:45:44.049Z,4.87
2022-10-05T02:48:25.229Z,4.83
2022-10-05T02:51:03.953Z,4.81
2022-10-05T02:53:45.544Z,4.75
2022-10-05T02:56:25.218Z,4.78
2022-10-05T02:59:06.042Z,4.82
2022-10-05T03:01:44.306Z,4.69
2022-10-05T03:04:30.818Z,4.56
2022-10-05T03:07:15.235Z,4.50
2022-10-05T03:10:01.087Z,4.48
2022-10-05T03:12:52.991Z,4.53
2022-10-05T03:15:58.150Z,4.49
2022-10-05T03:18:41.768Z,4.43
2022-10-05T03:21:35.172Z,4.37
2022-10-05T03:24:28.334Z,4.34
2022-10-05T03:27:14.506Z,4.38
2022-10-05T03:29:49.844Z,4.34
2022-10-05T03:32:31.344Z,4.32
2022-10-05T03:35:12.998Z,4.23
2022-10-05T03:37:49.358Z,4.10
2022-10-05T03:40:34.756Z,4.08
2022-10-05T03:43:35.333Z,4.25
2022-10-05T03:46:09.823Z,4.34
2022-10-05T03:48:52.989Z,4.50
2022-10-05T03:51:32.139Z,4.48
2022-10-05T03:54:10.234Z,4.39
2022-10-05T03:56:46.629Z,4.31
2022-10-05T03:59:19.674Z,4.29
2022-10-05T04:01:54.264Z,4.25
2022-10-05T04:04:32.617Z,4.11
2022-10-05T04:07:02.820Z,4.05
2022-10-05T04:09:40.585Z,4.04
2022-10-05T04:12:27.073Z,4.07
2022-10-05T04:15:04.186Z,4.11
2022-10-05T04:17:36.769Z,4.11
2022-10-05T04:20:15.925Z,4.07
2022-10-05T04:22:54.858Z,4.12
2022-10-05T04:25:30.324Z,4.12
2022-10-05T04:28:08.056Z,4.15
2022-10-05T04:30:42.108Z,4.12
2022-10-05T04:33:12.658Z,4.09
2022-10-05T04:36:14.046Z,4.19
2022-10-05T04:39:03.636Z,4.17
2022-10-05T04:42:04.389Z,4.15
2022-10-05T04:44:49.953Z,4.11
2022-10-05T04:47:49.198Z,4.11
2022-10-05T04:50:33.933Z,4.07
2022-10-05T04:53:17.648Z,4.02
2022-10-05T04:55:56.940Z,3.94
2022-10-05T04:59:02.355Z,3.87
2022-10-05T05:01:54.332Z,3.79
2022-10-05T05:04:52.329Z,3.78
2022-10-05T05:07:42.018Z,3.75
2022-10-05T05:11:05.640Z,3.76
2022-10-05T05:14:15.214Z,3.76
2022-10-05T05:16:47.036Z,3.71
2022-10-05T05:19:37.529Z,3.65
2022-10-05T05:22:14.437Z,3.56
2022-10-05T05:24:55.438Z,3.48
2022-10-05T05:27:44.162Z,3.43
2022-10-05T05:30:24.921Z,3.38
2022-10-05T05:33:20.323Z,3.42
2022-10-05T05:36:26.404Z,3.49
2022-10-05T05:39:17.143Z,3.48
2022-10-05T05:41:59.009Z,3.53
2022-10-05T05:44:34.259Z,3.60
2022-10-05T05:47:18.884Z,3.65
2022-10-05T05:50:25.766Z,3.77
2022-10-05T05:53:01.971Z,3.87
2022-10-05T05:55:37.073Z,3.95
2022-10-05T05:58:16.028Z,4.09
2022-10-05T06:00:50.923Z,4.21
2022-10-05T06:03:27.290Z,4.40
2022-10-05T06:06:01.774Z,4.47
2022-10-05T06:08:40.846Z,4.56
2022-10-05T06:11:24.445Z,4.65
2022-10-05T06:13:54.266Z,4.87
2022-10-05T06:16:31.264Z,5.15
2022-10-05T06:19:05.743Z,5.44
2022-10-05T06:21:43.161Z,5.88
2022-10-05T06:24:17.686Z,6.33
2022-10-05T06:27:24.672Z,7.06
2022-10-05T06:30:07.611Z,7.40
2022-10-05T06:32:58.890Z,7.87
2022-10-05T06:35:50.929Z,8.37
2022-10-05T06:38:44.235Z,8.73
2022-10-05T06:41:24.339Z,9.15
2022-10-05T06:44:01.682Z,9.24
2022-10-05T06:47:13.556Z,9.89
2022-10-05T06:50:17.033Z,10.45
2022-10-05T06:53:26.115Z,10.98
2022-10-05T06:56:03.504Z,11.20
2022-10-05T06:58:53.673Z,11.42
2022-10-05T07:01:42.055Z,11.68
2022-10-05T07:04:41.193Z,11.66
2022-10-05T07:07:20.632Z,12.18
2022-10-05T07:10:05.626Z,12.18
2022-10-05T07:13:01.892Z,12.60
2022-10-05T07:15:45.804Z,13.09
2022-10-05T07:18:47.764Z,13.45
2022-10-05T07:21:29.836Z,13.75
2022-10-05T07:24:13.865Z,12.98
2022-10-05T07:26:51.392Z,12.84
2022-10-05T07:29:33.675Z,13.40
2022-10-05T07:32:25.802Z,13.04
2022-10-05T07:35:05.866Z,12.78
2022-10-05T07:37:57.226Z,12.28
2022-10-05T07:40:37.817Z,12.00
2022-10-05T07:43:40.234Z,12.55
2022-10-05T07:46:28.978Z,12.35
2022-10-05T07:49:07.184Z,12.84
2022-10-05T07:51:41.032Z,13.14
2022-10-05T07:54:23.244Z,13.38
2022-10-05T07:57:03.685Z,13.49
2022-10-05T07:59:45.769Z,13.56
2022-10-05T08:02:28.262Z,13.91
2022-10-05T08:05:03.595Z,13.67
2022-10-05T08:07:36.787Z,13.85
2022-10-05T08:10:19.780Z,14.00
2022-10-05T08:13:05.308Z,14.80
2022-10-05T08:15:42.767Z,15.96
2022-10-05T08:18:20.736Z,15.77
2022-10-05T08:20:53.458Z,16.15
2022-10-05T08:23:26.601Z,16.10
2022-10-05T08:26:19.672Z,16.20
2022-10-05T08:29:00.956Z,16.23
2022-10-05T08:31:37.711Z,16.16
2022-10-05T08:34:20.114Z,16.36
2022-10-05T08:37:01.828Z,16.54
2022-10-05T08:39:38.255Z,16.90
2022-10-05T08:42:58.396Z,16.12
2022-10-05T08:46:13.851Z,16.59
2022-10-05T08:49:36.155Z,16.36
2022-10-05T08:52:29.255Z,17.15
2022-10-05T08:55:37.881Z,17.46
2022-10-05T08:58:44.500Z,16.87
2022-10-05T09:01:27.213Z,15.94
2022-10-05T09:04:20.724Z,15.65
2022-10-05T09:07:10.894Z,16.28
2022-10-05T09:10:34.681Z,16.79
2022-10-05T09:13:34.508Z,17.04
2022-10-05T09:16:26.790Z,17.69
2022-10-05T09:19:26.131Z,18.09
2022-10-05T09:22:10.550Z,17.62
2022-10-05T09:24:56.479Z,16.64
2022-10-05T09:27:38.374Z,16.19
2022-10-05T09:30:32.939Z,16.04
2022-10-05T09:33:51.886Z,16.12
2022-10-05T09:37:09.013Z,17.43
2022-10-05T09:40:06.159Z,17.88
2022-10-05T09:42:55.174Z,18.21
2022-10-05T09:46:26.615Z,18.17
2022-10-05T09:49:17.616Z,18.14
2022-10-05T09:52:19.150Z,17.09
2022-10-05T09:55:20.180Z,17.41
2022-10-05T09:59:07.406Z,17.34
2022-10-05T10:02:05.441Z,17.63
2022-10-05T10:05:20.176Z,17.55
2022-10-05T10:08:11.241Z,18.43
2022-10-05T10:11:17.141Z,18.59
2022-10-05T10:14:42.933Z,19.44
2022-10-05T10:17:49.092Z,19.38
2022-10-05T10:20:32.070Z,20.03
2022-10-05T10:23:28.201Z,20.12
2022-10-05T10:26:31.359Z,21.16
2022-10-05T10:29:51.581Z,22.24
2022-10-05T10:33:19.212Z,23.28
2022-10-05T10:36:01.633Z,23.35
2022-10-05T10:38:42.545Z,22.57
2022-10-05T10:42:25.335Z,22.91
2022-10-05T10:45:19.631Z,21.49
2022-10-05T10:48:05.031Z,21.33
2022-10-05T10:51:21.843Z,21.67
2022-10-05T10:54:49.397Z,22.38
2022-10-05T10:57:26.665Z,21.19
2022-10-05T11:00:24.968Z,19.72
2022-10-05T11:03:36.570Z,20.14
2022-10-05T11:06:46.921Z,18.73
2022-10-05T11:10:23.862Z,18.06
2022-10-05T11:13:18.041Z,18.48
2022-10-05T11:16:35.778Z,20.23
2022-10-05T11:19:46.279Z,20.94
2022-10-05T11:22:58.611Z,20.97
2022-10-05T11:25:56.311Z,19.86
2022-10-05T11:28:47.811Z,19.78
2022-10-05T11:32:01.577Z,20.40
2022-10-05T11:34:55.763Z,20.65
2022-10-05T11:38:28.326Z,21.14
2022-10-05T11:41:37.826Z,20.85
2022-10-05T11:44:50.527Z,21.61
2022-10-05T11:47:27.418Z,21.44
2022-10-05T11:50:13.906Z,21.82
2022-10-05T11:52:49.177Z,22.06
2022-10-05T11:55:29.983Z,21.94
2022-10-05T11:58:07.523Z,22.43
2022-10-05T12:00:44.987Z,22.23
2022-10-05T12:03:44.572Z,22.00
2022-10-05T12:06:46.534Z,21.87
2022-10-05T12:09:33.997Z,22.17
2022-10-05T12:12:15.623Z,20.69
2022-10-05T12:14:55.160Z,20.91
2022-10-05T12:17:31.000Z,21.58
2022-10-05T12:20:07.700Z,21.87
2022-10-05T12:22:45.790Z,22.08
2022-10-05T12:25:26.641Z,22.46
2022-10-05T12:28:04.807Z,22.43
2022-10-05T12:31:08.425Z,22.30
2022-10-05T12:33:47.798Z,23.18
2022-10-05T12:36:24.722Z,22.57
2022-10-05T12:39:05.239Z,23.00
2022-10-05T12:41:41.942Z,22.65
2022-10-05T12:44:24.672Z,23.28
2022-10-05T12:47:10.541Z,23.37
2022-10-05T12:49:51.304Z,23.39
2022-10-05T12:52:43.357Z,23.57
2022-10-05T12:55:21.751Z,22.54
2022-10-05T12:58:02.193Z,23.31
2022-10-05T13:00:37.670Z,23.71
2022-10-05T13:03:19.043Z,23.97
2022-10-05T13:06:02.833Z,23.86
2022-10-05T13:08:40.686Z,24.44
2022-10-05T13:11:19.893Z,24.83
2022-10-05T13:14:02.529Z,23.95
2022-10-05T13:16:45.753Z,23.71
2022-10-05T13:19:31.812Z,23.91
2022-10-05T13:22:19.769Z,23.41
2022-10-05T13:25:01.566Z,23.74
2022-10-05T13:27:35.363Z,24.00
2022-10-05T13:30:13.300Z,22.92
2022-10-05T13:32:48.022Z,22.83
2022-10-05T13:35:41.349Z,22.80
2022-10-05T13:38:25.739Z,23.20
2022-10-05T13:41:09.742Z,22.26
2022-10-05T13:43:50.410Z,22.02
2022-10-05T13:46:33.241Z,22.62
2022-10-05T13:49:22.391Z,23.06
2022-10-05T13:52:08.459Z,23.36
2022-10-05T13:54:46.860Z,22.45
2022-10-05T13:57:33.081Z,22.45
2022-10-05T14:00:14.485Z,22.67
2022-10-05T14:02:47.579Z,23.22
2022-10-05T14:05:20.351Z,23.06
2022-10-05T14:07:56.673Z,23.08
2022-10-05T14:10:39.814Z,22.55
2022-10-05T14:13:26.463Z,22.86
2022-10-05T14:16:07.501Z,23.24
2022-10-05T14:18:39.017Z,22.96
2022-10-05T14:21:22.723Z,22.72
2022-10-05T14:23:53.363Z,22.60
2022-10-05T14:26:35.582Z,22.60
2022-10-05T14:29:17.784Z,22.44
2022-10-05T14:31:54.316Z,22.52
2022-10-05T14:34:37.916Z,22.33
2022-10-05T14:37:19.274Z,22.28
2022-10-05T14:39:52.525Z,22.23
2022-10-05T14:42:24.242Z,22.17
2022-10-05T14:45:01.663Z,21.97
2022-10-05T14:47:34.273Z,21.50
2022-10-05T14:50:17.906Z,21.46
2022-10-05T14:53:04.331Z,21.27
2022-10-05T14:55:58.215Z,21.22
2022-10-05T14:58:41.438Z,21.24
2022-10-05T15:01:24.546Z,21.38
2022-10-05T15:04:07.922Z,21.21
2022-10-05T15:06:40.990Z,20.94
2022-10-05T15:09:48.272Z,20.58
2022-10-05T15:12:31.048Z,20.13
2022-10-05T15:15:07.597Z,19.74
2022-10-05T15:17:44.484Z,19.57
2022-10-05T15:20:24.914Z,19.30
2022-10-05T15:23:03.250Z,19.11
2022-10-05T15:25:37.170Z,19.19
2022-10-05T15:28:22.472Z,19.22
2022-10-05T15:31:02.491Z,19.07
2022-10-05T15:33:35.530Z,18.97
2022-10-05T15:36:13.868Z,18.91
2022-10-05T15:39:00.638Z,18.74
2022-10-05T15:41:55.909Z,18.43
2022-10-05T15:44:47.591Z,18.30
2022-10-05T15:47:24.467Z,18.42
2022-10-05T15:50:10.545Z,18.53
2022-10-05T15:52:47.656Z,18.25
2022-10-05T15:55:43.460Z,17.92
2022-10-05T15:58:31.844Z,17.54
2022-10-05T16:01:08.537Z,17.36
2022-10-05T16:03:52.247Z,17.12
2022-10-05T16:06:52.317Z,16.75
2022-10-05T16:09:53.089Z,16.44
2022-10-05T16:12:40.940Z,16.45
2022-10-05T16:15:26.392Z,16.14
2022-10-05T16:18:32.511Z,15.79
2022-10-05T16:21:18.334Z,15.45
2022-10-05T16:24:10.656Z,15.29
2022-10-05T16:26:58.065Z,15.06
2022-10-05T16:29:39.837Z,14.84
2022-10-05T16:32:15.317Z,14.77
2022-10-05T16:35:00.796Z,14.62
2022-10-05T16:37:42.353Z,14.51
2022-10-05T16:40:21.193Z,14.41
2022-10-05T16:43:06.541Z,14.28
2022-10-05T16:45:51.690Z,14.16
2022-10-05T16:48:27.408Z,14.04
2022-10-05T16:51:24.264Z,13.97
2022-10-05T16:54:06.405Z,13.98
2022-10-05T16:56:43.744Z,14.01
2022-10-05T16:59:46.443Z,13.91
2022-10-05T17:02:31.724Z,13.81
2022-10-05T17:05:22.135Z,13.80
2022-10-05T17:08:13.946Z,13.81
2022-10-05T17:10:59.919Z,13.71
2022-10-05T17:13:52.246Z,13.57
2022-10-05T17:16:36.347Z,13.48
2022-10-05T17:19:29.287Z,13.33
2022-10-05T17:22:02.083Z,13.29
2022-10-05T17:24:49.346Z,13.25
2022-10-05T17:27:27.013Z,13.15
2022-10-05T17:30:17.070Z,13.06
2022-10-05T17:33:00.243Z,13.10
2022-10-05T17:35:58.492Z,13.00
2022-10-05T17:38:50.766Z,13.17
2022-10-05T17:41:24.969Z,13.11
2022-10-05T17:44:27.612Z,13.18
2022-10-05T17:47:00.855Z,13.23
2022-10-05T17:50:15.769Z,13.09
2022-10-05T17:53:02.991Z,12.99
2022-10-05T17:55:47.195Z,12.90
2022-10-05T17:59:06.806Z,13.08
2022-10-05T18:01:37.943Z,13.09
2022-10-05T18:04:42.202Z,12.86
2022-10-05T18:07:23.985Z,12.64
2022-10-05T18:10:17.850Z,12.51
2022-10-05T18:12:49.705Z,12.27
2022-10-05T18:15:43.855Z,12.15
2022-10-05T18:18:57.203Z,12.45
2022-10-05T18:21:59.987Z,12.34
2022-10-05T18:24:56.221Z,12.18
2022-10-05T18:27:51.008Z,12.04
2022-10-05T18:30:24.401Z,11.91
2022-10-05T18:33:27.256Z,11.83
2022-10-05T18:36:12.073Z,11.72
2022-10-05T18:38:56.263Z,11.63
2022-10-05T18:41:40.494Z,11.47
2022-10-05T18:44:34.466Z,11.59
2022-10-05T18:47:17.964Z,11.70
2022-10-05T18:50:03.838Z,11.68
2022-10-05T18:53:01.140Z,11.55
2022-10-05T18:55:36.196Z,11.60
2022-10-05T18:58:21.388Z,11.73
2022-10-05T19:01:31.216Z,11.71
2022-10-05T19:04:23.517Z,11.71
2022-10-05T19:07:09.303Z,11.55
2022-10-05T19:10:01.954Z,11.49
2022-10-05T19:12:53.229Z,11.37
2022-10-05T19:15:28.250Z,11.16
2022-10-05T19:18:42.855Z,11.06
2022-10-05T19:21:29.750Z,11.06
2022-10-05T19:24:27.418Z,10.98
2022-10-05T19:27:07.990Z,10.96
2022-10-05T19:29:55.434Z,10.91
2022-10-05T19:32:34.846Z,10.83
2022-10-05T19:35:19.698Z,10.78
2022-10-05T19:38:14.505Z,10.79
2022-10-05T19:40:58.027Z,10.68
2022-10-05T19:44:06.738Z,10.52
2022-10-05T19:46:50.479Z,10.25
2022-10-05T19:49:43.521Z,10.01
2022-10-05T19:52:24.274Z,9.98
2022-10-05T19:55:15.757Z,9.91
2022-10-05T19:57:52.641Z,9.94
2022-10-05T20:00:26.487Z,10.01
2022-10-05T20:03:12.081Z,10.03
2022-10-05T20:05:41.331Z,10.16
2022-10-05T20:08:17.055Z,10.15
2022-10-05T20:11:04.451Z,10.12
2022-10-05T20:13:35.146Z,9.99
2022-10-05T20:16:46.568Z,9.79
2022-10-05T20:19:55.089Z,9.90
2022-10-05T20:22:34.275Z,9.80
2022-10-05T20:25:05.730Z,9.67
2022-10-05T20:27:43.922Z,9.65
2022-10-05T20:30:15.905Z,9.61
2022-10-05T20:32:45.576Z,9.58
2022-10-05T20:35:15.782Z,9.53
2022-10-05T20:37:44.543Z,9.48
2022-10-05T20:40:14.810Z,9.35
2022-10-05T20:42:44.697Z,9.31
2022-10-05T20:45:14.266Z,9.18
2022-10-05T20:47:43.130Z,9.22
2022-10-05T20:50:12.220Z,9.16
2022-10-05T20:52:41.735Z,9.26
2022-10-05T20:55:12.893Z,9.36
2022-10-05T20:57:42.403Z,9.40
2022-10-05T21:00:14.427Z,9.46
2022-10-05T21:02:43.114Z,9.52
2022-10-05T21:05:11.491Z,9.55
2022-10-05T21:07:40.955Z,9.46
2022-10-05T21:10:10.202Z,9.29
2022-10-05T21:12:38.852Z,9.14
2022-10-05T21:15:10.120Z,9.08
2022-10-05T21:17:39.966Z,9.03
2022-10-05T21:20:11.592Z,9.00
2022-10-05T21:22:40.044Z,9.10
2022-10-05T21:25:09.300Z,9.13
2022-10-05T21:27:37.936Z,9.24
2022-10-05T21:30:07.526Z,9.31
2022-10-05T21:32:39.535Z,9.26
2022-10-05T21:35:11.725Z,9.21
2022-10-05T21:37:40.863Z,9.19
2022-10-05T21:40:10.353Z,9.10
2022-10-05T21:42:39.132Z,9.12
2022-10-05T21:45:09.262Z,9.08
2022-10-05T21:47:37.787Z,9.14
2022-10-05T21:50:08.552Z,9.09
2022-10-05T21:52:38.586Z,8.93
2022-10-05T21:55:08.566Z,8.87
2022-10-05T21:57:38.841Z,8.87
2022-10-05T22:00:10.750Z,8.75
2022-10-05T22:02:39.496Z,8.63
2022-10-05T22:05:08.567Z,8.57
2022-10-05T22:07:38.507Z,8.52
2022-10-05T22:10:08.233Z,8.48
2022-10-05T22:12:36.663Z,8.44
2022-10-05T22:15:06.263Z,8.54
2022-10-05T22:17:35.871Z,8.67
2022-10-05T22:20:04.882Z,8.75
2022-10-05T22:22:33.367Z,8.86
2022-10-05T22:25:03.192Z,8.88
2022-10-05T22:27:32.725Z,8.90
2022-10-05T22:30:01.160Z,8.74
2022-10-05T22:32:29.766Z,8.76
2022-10-05T22:34:58.382Z,8.67
2022-10-05T22:37:26.962Z,8.59
2022-10-05T22:39:55.706Z,8.56
2022-10-05T22:42:25.457Z,8.47
2022-10-05T22:44:54.043Z,8.41
2022-10-05T22:47:22.688Z,8.43
2022-10-05T22:49:51.003Z,8.32
2022-10-05T22:52:19.617Z,8.27
2022-10-05T22:54:48.197Z,8.22
2022-10-05T22:57:16.904Z,8.16
2022-10-05T22:59:47.299Z,8.05
2022-10-05T23:02:17.824Z,8.04
2022-10-05T23:04:46.109Z,7.97
2022-10-05T23:07:14.733Z,7.95
2022-10-05T23:09:43.314Z,7.88
2022-10-05T23:12:13.637Z,7.77
2022-10-05T23:14:42.243Z,7.63
2022-10-05T23:17:11.860Z,7.59
2022-10-05T23:19:40.155Z,7.57
2022-10-05T23:22:08.768Z,7.62
2022-10-05T23:24:37.352Z,7.66
2022-10-05T23:27:05.767Z,7.67
2022-10-05T23:29:34.033Z,7.62
2022-10-05T23:32:02.671Z,7.59
2022-10-05T23:34:32.288Z,7.61
2022-10-05T23:37:00.672Z,7.62
2022-10-05T23:39:29.261Z,7.56
2022-10-05T23:42:00.246Z,7.42
2022-10-05T23:44:28.527Z,7.28
2022-10-05T23:46:56.777Z,7.16
2022-10-05T23:49:25.387Z,7.14
2022-10-05T23:51:55.336Z,7.19
2022-10-05T23:54:23.599Z,7.19
2022-10-05T23:56:52.240Z,7.12
2022-10-05T23:59:20.908Z,7.06
